sensor_id;sensor_type;location;lat;lon;timestamp;P1;durP1;ratioP1;P2;durP2;ratioP2
16391;SDS011;8305;-33.882;151.134;2023-01-25T00:01:05;5.55;;;2.40;;
16391;SDS011;8305;-33.882;151.134;2023-01-25T00:03:38;7.50;;;2.80;;
16391;SDS011;8305;-33.882;151.134;2023-01-25T00:06:09;5.25;;;2.28;;
16391;SDS011;8305;-33.882;151.134;2023-01-25T00:08:40;5.50;;;2.30;;
16391;SDS011;8305;-33.882;151.134;2023-01-25T00:11:13;8.75;;;2.65;;
16391;SDS011;8305;-33.882;151.134;2023-01-25T00:13:45;4.65;;;1.80;;
16391;SDS011;8305;-33.882;151.134;2023-01-25T00:16:16;3.60;;;1.60;;
16391;SDS011;8305;-33.882;151.134;2023-01-25T00:18:49;5.40;;;1.67;;
16391;SDS011;8305;-33.882;151.134;2023-01-25T00:21:20;3.90;;;1.60;;
16391;SDS011;8305;-33.882;151.134;2023-01-25T00:23:52;2.88;;;1.38;;
16391;SDS011;8305;-33.882;151.134;2023-01-25T00:26:23;6.45;;;1.75;;
16391;SDS011;8305;-33.882;151.134;2023-01-25T00:28:54;4.15;;;1.80;;
16391;SDS011;8305;-33.882;151.134;2023-01-25T00:31:28;5.05;;;1.55;;
16391;SDS011;8305;-33.882;151.134;2023-01-25T00:34:19;5.18;;;2.72;;
16391;SDS011;8305;-33.882;151.134;2023-01-25T00:37:11;4.72;;;1.52;;
16391;SDS011;8305;-33.882;151.134;2023-01-25T00:39:48;3.70;;;1.30;;
16391;SDS011;8305;-33.882;151.134;2023-01-25T00:42:19;4.82;;;1.30;;
16391;SDS011;8305;-33.882;151.134;2023-01-25T00:44:51;4.80;;;1.50;;
16391;SDS011;8305;-33.882;151.134;2023-01-25T00:47:22;4.22;;;1.20;;
16391;SDS011;8305;-33.882;151.134;2023-01-25T00:49:55;4.35;;;1.45;;
16391;SDS011;8305;-33.882;151.134;2023-01-25T00:52:26;6.88;;;1.83;;
16391;SDS011;8305;-33.882;151.134;2023-01-25T00:54:57;5.15;;;1.60;;
16391;SDS011;8305;-33.882;151.134;2023-01-25T00:57:28;5.43;;;1.85;;
16391;SDS011;8305;-33.882;151.134;2023-01-25T00:59:59;4.22;;;1.65;;
16391;SDS011;8305;-33.882;151.134;2023-01-25T01:02:30;4.63;;;1.55;;
16391;SDS011;8305;-33.882;151.134;2023-01-25T01:05:06;5.25;;;1.60;;
16391;SDS011;8305;-33.882;151.134;2023-01-25T01:07:37;5.00;;;1.60;;
16391;SDS011;8305;-33.882;151.134;2023-01-25T01:10:09;3.70;;;1.70;;
16391;SDS011;8305;-33.882;151.134;2023-01-25T01:12:42;4.00;;;1.48;;
16391;SDS011;8305;-33.882;151.134;2023-01-25T01:15:13;3.83;;;1.50;;
16391;SDS011;8305;-33.882;151.134;2023-01-25T01:17:44;5.45;;;1.70;;
16391;SDS011;8305;-33.882;151.134;2023-01-25T01:20:17;5.35;;;1.55;;
16391;SDS011;8305;-33.882;151.134;2023-01-25T01:22:48;4.50;;;1.60;;
16391;SDS011;8305;-33.882;151.134;2023-01-25T01:25:22;4.70;;;1.90;;
16391;SDS011;8305;-33.882;151.134;2023-01-25T01:27:52;4.35;;;1.65;;
16391;SDS011;8305;-33.882;151.134;2023-01-25T01:30:23;5.70;;;1.52;;
16391;SDS011;8305;-33.882;151.134;2023-01-25T01:32:54;4.75;;;1.98;;
16391;SDS011;8305;-33.882;151.134;2023-01-25T01:35:27;5.00;;;1.70;;
16391;SDS011;8305;-33.882;151.134;2023-01-25T01:37:58;3.97;;;1.80;;
16391;SDS011;8305;-33.882;151.134;2023-01-25T01:40:29;3.08;;;1.60;;
16391;SDS011;8305;-33.882;151.134;2023-01-25T01:43:02;4.30;;;2.00;;
16391;SDS011;8305;-33.882;151.134;2023-01-25T01:45:46;3.28;;;1.75;;
16391;SDS011;8305;-33.882;151.134;2023-01-25T01:48:25;4.45;;;1.75;;
16391;SDS011;8305;-33.882;151.134;2023-01-25T01:51:07;4.60;;;1.83;;
16391;SDS011;8305;-33.882;151.134;2023-01-25T01:53:44;3.70;;;1.70;;
16391;SDS011;8305;-33.882;151.134;2023-01-25T01:56:19;3.50;;;1.75;;
16391;SDS011;8305;-33.882;151.134;2023-01-25T01:58:54;5.38;;;1.90;;
16391;SDS011;8305;-33.882;151.134;2023-01-25T02:01:27;4.80;;;1.95;;
16391;SDS011;8305;-33.882;151.134;2023-01-25T02:03:58;4.18;;;1.60;;
16391;SDS011;8305;-33.882;151.134;2023-01-25T02:06:34;2.30;;;1.23;;
16391;SDS011;8305;-33.882;151.134;2023-01-25T02:09:12;5.05;;;1.73;;
16391;SDS011;8305;-33.882;151.134;2023-01-25T02:11:46;6.90;;;1.70;;
16391;SDS011;8305;-33.882;151.134;2023-01-25T02:14:19;4.28;;;1.80;;
16391;SDS011;8305;-33.882;151.134;2023-01-25T02:16:50;6.10;;;1.67;;
16391;SDS011;8305;-33.882;151.134;2023-01-25T02:19:30;5.03;;;1.80;;
16391;SDS011;8305;-33.882;151.134;2023-01-25T02:22:09;2.72;;;1.60;;
16391;SDS011;8305;-33.882;151.134;2023-01-25T02:24:43;3.15;;;1.60;;
16391;SDS011;8305;-33.882;151.134;2023-01-25T02:27:24;5.85;;;1.88;;
16391;SDS011;8305;-33.882;151.134;2023-01-25T02:29:55;7.20;;;1.98;;
16391;SDS011;8305;-33.882;151.134;2023-01-25T02:32:27;3.88;;;1.80;;
16391;SDS011;8305;-33.882;151.134;2023-01-25T02:34:58;4.45;;;1.60;;
16391;SDS011;8305;-33.882;151.134;2023-01-25T02:37:28;4.65;;;1.45;;
16391;SDS011;8305;-33.882;151.134;2023-01-25T02:40:02;5.40;;;1.70;;
16391;SDS011;8305;-33.882;151.134;2023-01-25T02:42:36;4.63;;;1.52;;
16391;SDS011;8305;-33.882;151.134;2023-01-25T02:45:09;4.90;;;1.55;;
16391;SDS011;8305;-33.882;151.134;2023-01-25T02:47:46;3.90;;;1.48;;
16391;SDS011;8305;-33.882;151.134;2023-01-25T02:50:17;6.97;;;1.85;;
16391;SDS011;8305;-33.882;151.134;2023-01-25T02:52:48;4.32;;;1.65;;
16391;SDS011;8305;-33.882;151.134;2023-01-25T02:55:19;4.25;;;1.60;;
16391;SDS011;8305;-33.882;151.134;2023-01-25T02:57:52;5.32;;;1.60;;
16391;SDS011;8305;-33.882;151.134;2023-01-25T03:00:23;4.28;;;1.63;;
16391;SDS011;8305;-33.882;151.134;2023-01-25T03:02:54;4.00;;;1.65;;
16391;SDS011;8305;-33.882;151.134;2023-01-25T03:05:26;7.88;;;2.15;;
16391;SDS011;8305;-33.882;151.134;2023-01-25T03:07:57;3.13;;;1.60;;
16391;SDS011;8305;-33.882;151.134;2023-01-25T03:10:28;4.28;;;1.55;;
16391;SDS011;8305;-33.882;151.134;2023-01-25T03:13:01;4.68;;;1.80;;
16391;SDS011;8305;-33.882;151.134;2023-01-25T03:15:32;5.07;;;1.75;;
16391;SDS011;8305;-33.882;151.134;2023-01-25T03:18:03;7.72;;;1.65;;
16391;SDS011;8305;-33.882;151.134;2023-01-25T03:20:34;4.40;;;1.58;;
16391;SDS011;8305;-33.882;151.134;2023-01-25T03:23:05;4.18;;;1.60;;
16391;SDS011;8305;-33.882;151.134;2023-01-25T03:25:38;4.50;;;1.38;;
16391;SDS011;8305;-33.882;151.134;2023-01-25T03:28:14;6.05;;;1.70;;
16391;SDS011;8305;-33.882;151.134;2023-01-25T03:30:45;7.43;;;1.60;;
16391;SDS011;8305;-33.882;151.134;2023-01-25T03:33:20;3.90;;;1.40;;
16391;SDS011;8305;-33.882;151.134;2023-01-25T03:35:51;4.10;;;1.50;;
16391;SDS011;8305;-33.882;151.134;2023-01-25T03:38:22;3.97;;;1.58;;
16391;SDS011;8305;-33.882;151.134;2023-01-25T03:40:53;5.30;;;1.48;;
16391;SDS011;8305;-33.882;151.134;2023-01-25T03:43:27;5.13;;;1.83;;
16391;SDS011;8305;-33.882;151.134;2023-01-25T03:45:58;4.57;;;1.50;;
16391;SDS011;8305;-33.882;151.134;2023-01-25T03:48:30;4.95;;;1.83;;
16391;SDS011;8305;-33.882;151.134;2023-01-25T03:51:04;4.97;;;1.60;;
16391;SDS011;8305;-33.882;151.134;2023-01-25T03:53:37;5.93;;;1.60;;
16391;SDS011;8305;-33.882;151.134;2023-01-25T03:56:11;5.80;;;1.83;;
16391;SDS011;8305;-33.882;151.134;2023-01-25T03:58:47;6.32;;;1.80;;
16391;SDS011;8305;-33.882;151.134;2023-01-25T04:01:18;5.45;;;1.55;;
16391;SDS011;8305;-33.882;151.134;2023-01-25T04:03:49;6.13;;;1.50;;
16391;SDS011;8305;-33.882;151.134;2023-01-25T04:06:21;3.58;;;1.45;;
16391;SDS011;8305;-33.882;151.134;2023-01-25T04:08:52;6.55;;;1.70;;
16391;SDS011;8305;-33.882;151.134;2023-01-25T04:11:23;4.78;;;1.45;;
16391;SDS011;8305;-33.882;151.134;2023-01-25T04:13:56;6.97;;;1.80;;
16391;SDS011;8305;-33.882;151.134;2023-01-25T04:16:28;4.45;;;1.80;;
16391;SDS011;8305;-33.882;151.134;2023-01-25T04:19:01;4.25;;;1.40;;
16391;SDS011;8305;-33.882;151.134;2023-01-25T04:21:32;4.22;;;1.90;;
16391;SDS011;8305;-33.882;151.134;2023-01-25T04:24:03;8.25;;;1.67;;
16391;SDS011;8305;-33.882;151.134;2023-01-25T04:26:34;4.22;;;1.60;;
16391;SDS011;8305;-33.882;151.134;2023-01-25T04:29:08;5.20;;;1.60;;
16391;SDS011;8305;-33.882;151.134;2023-01-25T04:31:39;4.57;;;2.30;;
16391;SDS011;8305;-33.882;151.134;2023-01-25T04:34:10;3.03;;;1.10;;
16391;SDS011;8305;-33.882;151.134;2023-01-25T04:36:41;2.67;;;1.45;;
16391;SDS011;8305;-33.882;151.134;2023-01-25T04:39:15;7.03;;;1.70;;
16391;SDS011;8305;-33.882;151.134;2023-01-25T04:41:46;6.25;;;1.58;;
16391;SDS011;8305;-33.882;151.134;2023-01-25T04:44:19;10.52;;;1.77;;
16391;SDS011;8305;-33.882;151.134;2023-01-25T04:46:50;4.78;;;1.60;;
16391;SDS011;8305;-33.882;151.134;2023-01-25T04:49:21;6.28;;;1.50;;
16391;SDS011;8305;-33.882;151.134;2023-01-25T04:51:52;5.78;;;1.80;;
16391;SDS011;8305;-33.882;151.134;2023-01-25T04:54:23;5.13;;;1.23;;
16391;SDS011;8305;-33.882;151.134;2023-01-25T04:56:57;4.18;;;1.10;;
16391;SDS011;8305;-33.882;151.134;2023-01-25T04:59:31;3.58;;;1.50;;
16391;SDS011;8305;-33.882;151.134;2023-01-25T05:02:01;4.20;;;1.13;;
16391;SDS011;8305;-33.882;151.134;2023-01-25T05:04:32;3.72;;;1.13;;
16391;SDS011;8305;-33.882;151.134;2023-01-25T05:07:03;7.97;;;1.30;;
16391;SDS011;8305;-33.882;151.134;2023-01-25T05:09:34;2.78;;;1.08;;
16391;SDS011;8305;-33.882;151.134;2023-01-25T05:12:05;4.28;;;1.10;;
16391;SDS011;8305;-33.882;151.134;2023-01-25T05:14:41;4.25;;;1.27;;
16391;SDS011;8305;-33.882;151.134;2023-01-25T05:17:13;4.95;;;1.30;;
16391;SDS011;8305;-33.882;151.134;2023-01-25T05:19:44;4.15;;;1.40;;
16391;SDS011;8305;-33.882;151.134;2023-01-25T05:22:16;4.97;;;1.20;;
16391;SDS011;8305;-33.882;151.134;2023-01-25T05:24:48;3.45;;;1.23;;
16391;SDS011;8305;-33.882;151.134;2023-01-25T05:27:19;5.38;;;1.50;;
16391;SDS011;8305;-33.882;151.134;2023-01-25T05:29:51;4.53;;;1.25;;
16391;SDS011;8305;-33.882;151.134;2023-01-25T05:32:22;3.80;;;1.40;;
16391;SDS011;8305;-33.882;151.134;2023-01-25T05:34:54;4.03;;;1.13;;
16391;SDS011;8305;-33.882;151.134;2023-01-25T05:37:24;4.55;;;1.08;;
16391;SDS011;8305;-33.882;151.134;2023-01-25T05:39:55;4.43;;;1.10;;
16391;SDS011;8305;-33.882;151.134;2023-01-25T05:42:30;3.72;;;1.30;;
16391;SDS011;8305;-33.882;151.134;2023-01-25T05:45:03;5.07;;;1.13;;
16391;SDS011;8305;-33.882;151.134;2023-01-25T05:47:34;2.50;;;1.25;;
16391;SDS011;8305;-33.882;151.134;2023-01-25T05:50:05;3.53;;;1.20;;
16391;SDS011;8305;-33.882;151.134;2023-01-25T05:52:37;3.17;;;1.13;;
16391;SDS011;8305;-33.882;151.134;2023-01-25T05:55:08;7.07;;;1.20;;
16391;SDS011;8305;-33.882;151.134;2023-01-25T05:57:39;5.10;;;1.60;;
16391;SDS011;8305;-33.882;151.134;2023-01-25T06:00:13;5.00;;;1.38;;
16391;SDS011;8305;-33.882;151.134;2023-01-25T06:02:44;3.67;;;1.10;;
16391;SDS011;8305;-33.882;151.134;2023-01-25T06:05:15;4.10;;;1.17;;
16391;SDS011;8305;-33.882;151.134;2023-01-25T06:07:47;5.30;;;1.27;;
16391;SDS011;8305;-33.882;151.134;2023-01-25T06:10:18;4.45;;;1.40;;
16391;SDS011;8305;-33.882;151.134;2023-01-25T06:12:49;6.65;;;1.30;;
16391;SDS011;8305;-33.882;151.134;2023-01-25T06:15:26;4.80;;;1.23;;
16391;SDS011;8305;-33.882;151.134;2023-01-25T06:17:57;3.15;;;1.33;;
16391;SDS011;8305;-33.882;151.134;2023-01-25T06:20:28;2.63;;;1.20;;
16391;SDS011;8305;-33.882;151.134;2023-01-25T06:22:59;8.88;;;1.80;;
16391;SDS011;8305;-33.882;151.134;2023-01-25T06:25:30;9.10;;;1.67;;
16391;SDS011;8305;-33.882;151.134;2023-01-25T06:28:01;4.65;;;1.30;;
16391;SDS011;8305;-33.882;151.134;2023-01-25T06:30:34;3.92;;;1.08;;
16391;SDS011;8305;-33.882;151.134;2023-01-25T06:33:05;3.92;;;1.25;;
16391;SDS011;8305;-33.882;151.134;2023-01-25T06:35:36;3.17;;;1.30;;
16391;SDS011;8305;-33.882;151.134;2023-01-25T06:38:08;4.57;;;1.50;;
16391;SDS011;8305;-33.882;151.134;2023-01-25T06:40:39;3.90;;;1.50;;
16391;SDS011;8305;-33.882;151.134;2023-01-25T06:43:10;3.05;;;1.20;;
16391;SDS011;8305;-33.882;151.134;2023-01-25T06:45:43;3.50;;;1.35;;
16391;SDS011;8305;-33.882;151.134;2023-01-25T06:48:14;1.90;;;1.17;;
16391;SDS011;8305;-33.882;151.134;2023-01-25T06:50:51;3.00;;;1.25;;
16391;SDS011;8305;-33.882;151.134;2023-01-25T06:53:24;5.97;;;1.42;;
16391;SDS011;8305;-33.882;151.134;2023-01-25T06:55:59;5.78;;;1.35;;
16391;SDS011;8305;-33.882;151.134;2023-01-25T06:58:33;4.32;;;1.63;;
16391;SDS011;8305;-33.882;151.134;2023-01-25T07:01:10;4.13;;;1.80;;
16391;SDS011;8305;-33.882;151.134;2023-01-25T07:03:47;7.40;;;2.20;;
16391;SDS011;8305;-33.882;151.134;2023-01-25T07:06:18;7.20;;;1.90;;
16391;SDS011;8305;-33.882;151.134;2023-01-25T07:08:49;3.78;;;1.60;;
16391;SDS011;8305;-33.882;151.134;2023-01-25T07:11:20;9.15;;;1.90;;
16391;SDS011;8305;-33.882;151.134;2023-01-25T07:13:51;5.63;;;1.90;;
16391;SDS011;8305;-33.882;151.134;2023-01-25T07:16:24;4.80;;;1.58;;
16391;SDS011;8305;-33.882;151.134;2023-01-25T07:19:01;5.72;;;1.50;;
16391;SDS011;8305;-33.882;151.134;2023-01-25T07:21:33;6.72;;;1.50;;
16391;SDS011;8305;-33.882;151.134;2023-01-25T07:24:04;5.53;;;1.50;;
16391;SDS011;8305;-33.882;151.134;2023-01-25T07:26:35;4.65;;;1.65;;
16391;SDS011;8305;-33.882;151.134;2023-01-25T07:29:06;6.78;;;1.73;;
16391;SDS011;8305;-33.882;151.134;2023-01-25T07:31:41;4.70;;;1.30;;
16391;SDS011;8305;-33.882;151.134;2023-01-25T07:34:12;3.83;;;1.25;;
16391;SDS011;8305;-33.882;151.134;2023-01-25T07:36:44;4.00;;;1.45;;
16391;SDS011;8305;-33.882;151.134;2023-01-25T07:39:15;6.10;;;1.92;;
16391;SDS011;8305;-33.882;151.134;2023-01-25T07:41:45;4.45;;;1.38;;
16391;SDS011;8305;-33.882;151.134;2023-01-25T07:44:16;4.18;;;1.25;;
16391;SDS011;8305;-33.882;151.134;2023-01-25T07:46:49;4.38;;;1.38;;
16391;SDS011;8305;-33.882;151.134;2023-01-25T07:49:21;3.92;;;1.20;;
16391;SDS011;8305;-33.882;151.134;2023-01-25T07:51:52;3.10;;;1.10;;
16391;SDS011;8305;-33.882;151.134;2023-01-25T07:54:23;4.13;;;1.20;;
16391;SDS011;8305;-33.882;151.134;2023-01-25T07:56:54;5.45;;;1.30;;
16391;SDS011;8305;-33.882;151.134;2023-01-25T07:59:25;4.45;;;1.20;;
16391;SDS011;8305;-33.882;151.134;2023-01-25T08:01:59;5.18;;;1.27;;
16391;SDS011;8305;-33.882;151.134;2023-01-25T08:04:30;4.90;;;1.45;;
16391;SDS011;8305;-33.882;151.134;2023-01-25T08:07:00;5.55;;;1.45;;
16391;SDS011;8305;-33.882;151.134;2023-01-25T08:09:32;4.70;;;1.20;;
16391;SDS011;8305;-33.882;151.134;2023-01-25T08:12:03;4.63;;;1.40;;
16391;SDS011;8305;-33.882;151.134;2023-01-25T08:14:34;4.57;;;1.30;;
16391;SDS011;8305;-33.882;151.134;2023-01-25T08:17:07;5.65;;;1.30;;
16391;SDS011;8305;-33.882;151.134;2023-01-25T08:19:39;4.90;;;1.20;;
16391;SDS011;8305;-33.882;151.134;2023-01-25T08:22:10;4.22;;;1.30;;
16391;SDS011;8305;-33.882;151.134;2023-01-25T08:24:41;3.05;;;1.40;;
16391;SDS011;8305;-33.882;151.134;2023-01-25T08:27:12;5.53;;;1.70;;
16391;SDS011;8305;-33.882;151.134;2023-01-25T08:29:44;5.85;;;1.45;;
16391;SDS011;8305;-33.882;151.134;2023-01-25T08:32:17;7.28;;;1.63;;
16391;SDS011;8305;-33.882;151.134;2023-01-25T08:34:48;3.90;;;1.25;;
16391;SDS011;8305;-33.882;151.134;2023-01-25T08:37:19;4.13;;;1.30;;
16391;SDS011;8305;-33.882;151.134;2023-01-25T08:39:54;3.50;;;1.30;;
16391;SDS011;8305;-33.882;151.134;2023-01-25T08:42:25;7.47;;;1.65;;
16391;SDS011;8305;-33.882;151.134;2023-01-25T08:44:56;5.32;;;1.30;;
16391;SDS011;8305;-33.882;151.134;2023-01-25T08:47:30;4.13;;;1.35;;
16391;SDS011;8305;-33.882;151.134;2023-01-25T08:50:01;4.78;;;1.45;;
16391;SDS011;8305;-33.882;151.134;2023-01-25T08:52:32;5.28;;;1.35;;
16391;SDS011;8305;-33.882;151.134;2023-01-25T08:55:03;6.13;;;1.42;;
16391;SDS011;8305;-33.882;151.134;2023-01-25T08:57:34;3.75;;;1.40;;
16391;SDS011;8305;-33.882;151.134;2023-01-25T09:00:06;4.82;;;1.38;;
16391;SDS011;8305;-33.882;151.134;2023-01-25T09:02:39;7.07;;;1.63;;
16391;SDS011;8305;-33.882;151.134;2023-01-25T09:05:10;4.28;;;1.20;;
16391;SDS011;8305;-33.882;151.134;2023-01-25T09:07:42;4.15;;;1.60;;
16391;SDS011;8305;-33.882;151.134;2023-01-25T09:10:13;2.97;;;1.20;;
16391;SDS011;8305;-33.882;151.134;2023-01-25T09:12:45;4.53;;;1.45;;
16391;SDS011;8305;-33.882;151.134;2023-01-25T09:15:15;4.68;;;1.52;;
16391;SDS011;8305;-33.882;151.134;2023-01-25T09:17:51;5.18;;;1.30;;
16391;SDS011;8305;-33.882;151.134;2023-01-25T09:20:23;5.45;;;1.60;;
16391;SDS011;8305;-33.882;151.134;2023-01-25T09:22:54;5.03;;;1.73;;
16391;SDS011;8305;-33.882;151.134;2023-01-25T09:25:25;7.85;;;1.35;;
16391;SDS011;8305;-33.882;151.134;2023-01-25T09:27:56;4.95;;;1.13;;
16391;SDS011;8305;-33.882;151.134;2023-01-25T09:30:27;6.03;;;1.40;;
16391;SDS011;8305;-33.882;151.134;2023-01-25T09:33:00;4.93;;;1.40;;
16391;SDS011;8305;-33.882;151.134;2023-01-25T09:35:32;8.82;;;1.70;;
16391;SDS011;8305;-33.882;151.134;2023-01-25T09:38:03;5.63;;;1.50;;
16391;SDS011;8305;-33.882;151.134;2023-01-25T09:40:36;5.40;;;1.23;;
16391;SDS011;8305;-33.882;151.134;2023-01-25T09:43:14;6.22;;;1.50;;
16391;SDS011;8305;-33.882;151.134;2023-01-25T09:45:59;4.65;;;1.42;;
16391;SDS011;8305;-33.882;151.134;2023-01-25T09:48:41;5.35;;;1.50;;
16391;SDS011;8305;-33.882;151.134;2023-01-25T09:51:19;5.00;;;1.73;;
16391;SDS011;8305;-33.882;151.134;2023-01-25T09:53:57;8.65;;;1.52;;
16391;SDS011;8305;-33.882;151.134;2023-01-25T09:56:29;4.22;;;1.30;;
16391;SDS011;8305;-33.882;151.134;2023-01-25T09:59:04;4.68;;;1.50;;
16391;SDS011;8305;-33.882;151.134;2023-01-25T10:01:42;3.92;;;1.45;;
16391;SDS011;8305;-33.882;151.134;2023-01-25T10:04:20;5.28;;;1.50;;
16391;SDS011;8305;-33.882;151.134;2023-01-25T10:06:53;5.70;;;1.80;;
16391;SDS011;8305;-33.882;151.134;2023-01-25T10:09:31;5.90;;;1.92;;
16391;SDS011;8305;-33.882;151.134;2023-01-25T10:12:12;7.38;;;2.40;;
16391;SDS011;8305;-33.882;151.134;2023-01-25T10:14:47;6.35;;;2.60;;
16391;SDS011;8305;-33.882;151.134;2023-01-25T10:17:21;8.85;;;2.70;;
16391;SDS011;8305;-33.882;151.134;2023-01-25T10:20:02;7.20;;;2.55;;
16391;SDS011;8305;-33.882;151.134;2023-01-25T10:22:44;9.57;;;3.15;;
16391;SDS011;8305;-33.882;151.134;2023-01-25T10:25:21;8.52;;;3.00;;
16391;SDS011;8305;-33.882;151.134;2023-01-25T10:28:04;9.25;;;3.40;;
16391;SDS011;8305;-33.882;151.134;2023-01-25T10:30:46;5.85;;;2.58;;
16391;SDS011;8305;-33.882;151.134;2023-01-25T10:33:21;6.45;;;2.22;;
16391;SDS011;8305;-33.882;151.134;2023-01-25T10:35:55;8.25;;;2.30;;
16391;SDS011;8305;-33.882;151.134;2023-01-25T10:38:29;6.47;;;2.30;;
16391;SDS011;8305;-33.882;151.134;2023-01-25T10:41:05;7.07;;;1.98;;
16391;SDS011;8305;-33.882;151.134;2023-01-25T10:43:40;7.03;;;1.90;;
16391;SDS011;8305;-33.882;151.134;2023-01-25T10:46:18;5.40;;;1.60;;
16391;SDS011;8305;-33.882;151.134;2023-01-25T10:48:51;6.15;;;1.70;;
16391;SDS011;8305;-33.882;151.134;2023-01-25T10:51:31;3.90;;;1.52;;
16391;SDS011;8305;-33.882;151.134;2023-01-25T10:54:03;5.72;;;1.70;;
16391;SDS011;8305;-33.882;151.134;2023-01-25T10:56:37;7.78;;;1.77;;
16391;SDS011;8305;-33.882;151.134;2023-01-25T10:59:14;9.20;;;2.15;;
16391;SDS011;8305;-33.882;151.134;2023-01-25T11:01:50;8.13;;;1.88;;
16391;SDS011;8305;-33.882;151.134;2023-01-25T11:04:22;4.32;;;1.70;;
16391;SDS011;8305;-33.882;151.134;2023-01-25T11:07:00;4.30;;;1.50;;
16391;SDS011;8305;-33.882;151.134;2023-01-25T11:09:32;6.38;;;1.65;;
16391;SDS011;8305;-33.882;151.134;2023-01-25T11:12:13;5.57;;;1.80;;
16391;SDS011;8305;-33.882;151.134;2023-01-25T11:14:46;6.47;;;1.50;;
16391;SDS011;8305;-33.882;151.134;2023-01-25T11:17:25;5.28;;;1.60;;
16391;SDS011;8305;-33.882;151.134;2023-01-25T11:20:05;6.82;;;1.63;;
16391;SDS011;8305;-33.882;151.134;2023-01-25T11:22:55;6.75;;;1.80;;
16391;SDS011;8305;-33.882;151.134;2023-01-25T11:25:30;6.43;;;1.52;;
16391;SDS011;8305;-33.882;151.134;2023-01-25T11:28:13;8.25;;;1.85;;
16391;SDS011;8305;-33.882;151.134;2023-01-25T11:30:47;4.07;;;1.30;;
16391;SDS011;8305;-33.882;151.134;2023-01-25T11:33:19;5.13;;;1.48;;
16391;SDS011;8305;-33.882;151.134;2023-01-25T11:35:59;5.25;;;1.30;;
16391;SDS011;8305;-33.882;151.134;2023-01-25T11:38:42;5.90;;;1.42;;
16391;SDS011;8305;-33.882;151.134;2023-01-25T11:41:22;5.20;;;1.40;;
16391;SDS011;8305;-33.882;151.134;2023-01-25T11:44:07;4.30;;;1.40;;
16391;SDS011;8305;-33.882;151.134;2023-01-25T11:46:56;5.43;;;1.75;;
16391;SDS011;8305;-33.882;151.134;2023-01-25T11:49:40;4.75;;;1.40;;
16391;SDS011;8305;-33.882;151.134;2023-01-25T11:52:22;4.57;;;1.42;;
16391;SDS011;8305;-33.882;151.134;2023-01-25T11:55:05;5.03;;;1.60;;
16391;SDS011;8305;-33.882;151.134;2023-01-25T11:57:48;4.32;;;1.30;;
16391;SDS011;8305;-33.882;151.134;2023-01-25T12:00:34;4.57;;;1.40;;
16391;SDS011;8305;-33.882;151.134;2023-01-25T12:03:37;6.18;;;1.50;;
16391;SDS011;8305;-33.882;151.134;2023-01-25T12:06:34;2.90;;;1.30;;
16391;SDS011;8305;-33.882;151.134;2023-01-25T12:09:19;4.60;;;1.30;;
16391;SDS011;8305;-33.882;151.134;2023-01-25T12:12:08;3.85;;;1.40;;
16391;SDS011;8305;-33.882;151.134;2023-01-25T12:14:53;4.53;;;1.50;;
16391;SDS011;8305;-33.882;151.134;2023-01-25T12:17:41;5.13;;;1.63;;
16391;SDS011;8305;-33.882;151.134;2023-01-25T12:20:24;3.20;;;1.40;;
16391;SDS011;8305;-33.882;151.134;2023-01-25T12:23:09;3.38;;;1.40;;
16391;SDS011;8305;-33.882;151.134;2023-01-25T12:26:11;4.45;;;1.55;;
16391;SDS011;8305;-33.882;151.134;2023-01-25T12:28:56;6.80;;;1.50;;
16391;SDS011;8305;-33.882;151.134;2023-01-25T12:31:36;4.53;;;1.45;;
16391;SDS011;8305;-33.882;151.134;2023-01-25T12:34:13;4.43;;;1.35;;
16391;SDS011;8305;-33.882;151.134;2023-01-25T12:36:47;4.70;;;1.50;;
16391;SDS011;8305;-33.882;151.134;2023-01-25T12:39:20;6.05;;;1.52;;
16391;SDS011;8305;-33.882;151.134;2023-01-25T12:41:54;5.72;;;1.67;;
16391;SDS011;8305;-33.882;151.134;2023-01-25T12:44:33;3.55;;;1.58;;
16391;SDS011;8305;-33.882;151.134;2023-01-25T12:47:09;3.53;;;1.45;;
16391;SDS011;8305;-33.882;151.134;2023-01-25T12:49:43;5.30;;;1.50;;
16391;SDS011;8305;-33.882;151.134;2023-01-25T12:52:19;3.50;;;1.40;;
16391;SDS011;8305;-33.882;151.134;2023-01-25T12:54:53;8.10;;;1.63;;
16391;SDS011;8305;-33.882;151.134;2023-01-25T12:57:31;5.05;;;1.58;;
16391;SDS011;8305;-33.882;151.134;2023-01-25T13:00:15;6.35;;;1.40;;
16391;SDS011;8305;-33.882;151.134;2023-01-25T13:02:53;8.32;;;1.65;;
16391;SDS011;8305;-33.882;151.134;2023-01-25T13:05:45;6.63;;;1.73;;
16391;SDS011;8305;-33.882;151.134;2023-01-25T13:08:25;5.38;;;1.50;;
16391;SDS011;8305;-33.882;151.134;2023-01-25T13:11:07;3.65;;;1.40;;
16391;SDS011;8305;-33.882;151.134;2023-01-25T13:13:41;3.22;;;1.23;;
16391;SDS011;8305;-33.882;151.134;2023-01-25T13:16:34;4.85;;;1.70;;
16391;SDS011;8305;-33.882;151.134;2023-01-25T13:19:19;5.18;;;1.55;;
16391;SDS011;8305;-33.882;151.134;2023-01-25T13:22:07;4.72;;;1.70;;
16391;SDS011;8305;-33.882;151.134;2023-01-25T13:27:36;3.83;;;1.48;;
16391;SDS011;8305;-33.882;151.134;2023-01-25T13:30:25;4.75;;;1.73;;
16391;SDS011;8305;-33.882;151.134;2023-01-25T13:33:03;6.43;;;1.65;;
16391;SDS011;8305;-33.882;151.134;2023-01-25T13:35:35;3.33;;;1.27;;
16391;SDS011;8305;-33.882;151.134;2023-01-25T13:41:02;4.90;;;1.60;;
16391;SDS011;8305;-33.882;151.134;2023-01-25T13:43:48;5.47;;;1.48;;
16391;SDS011;8305;-33.882;151.134;2023-01-25T13:46:23;4.95;;;1.60;;
16391;SDS011;8305;-33.882;151.134;2023-01-25T13:48:59;5.53;;;1.52;;
16391;SDS011;8305;-33.882;151.134;2023-01-25T13:51:33;3.08;;;1.65;;
16391;SDS011;8305;-33.882;151.134;2023-01-25T13:54:13;6.18;;;1.77;;
16391;SDS011;8305;-33.882;151.134;2023-01-25T13:56:45;4.80;;;1.75;;
16391;SDS011;8305;-33.882;151.134;2023-01-25T13:59:25;2.72;;;1.60;;
16391;SDS011;8305;-33.882;151.134;2023-01-25T14:01:56;3.53;;;1.83;;
16391;SDS011;8305;-33.882;151.134;2023-01-25T14:04:31;3.60;;;1.65;;
16391;SDS011;8305;-33.882;151.134;2023-01-25T14:07:02;5.13;;;1.90;;
16391;SDS011;8305;-33.882;151.134;2023-01-25T14:09:35;2.80;;;1.67;;
16391;SDS011;8305;-33.882;151.134;2023-01-25T14:12:09;4.53;;;1.63;;
16391;SDS011;8305;-33.882;151.134;2023-01-25T14:14:48;5.28;;;1.60;;
16391;SDS011;8305;-33.882;151.134;2023-01-25T14:17:19;3.63;;;1.80;;
16391;SDS011;8305;-33.882;151.134;2023-01-25T14:19:54;3.80;;;1.73;;
16391;SDS011;8305;-33.882;151.134;2023-01-25T14:22:26;5.57;;;1.70;;
16391;SDS011;8305;-33.882;151.134;2023-01-25T14:25:04;6.00;;;1.70;;
16391;SDS011;8305;-33.882;151.134;2023-01-25T14:27:42;5.38;;;1.88;;
16391;SDS011;8305;-33.882;151.134;2023-01-25T14:30:18;3.88;;;1.85;;
16391;SDS011;8305;-33.882;151.134;2023-01-25T14:32:51;4.93;;;1.90;;
16391;SDS011;8305;-33.882;151.134;2023-01-25T14:35:35;5.72;;;2.00;;
16391;SDS011;8305;-33.882;151.134;2023-01-25T14:38:23;6.13;;;1.80;;
16391;SDS011;8305;-33.882;151.134;2023-01-25T14:40:57;4.30;;;1.90;;
16391;SDS011;8305;-33.882;151.134;2023-01-25T14:43:31;4.32;;;1.92;;
16391;SDS011;8305;-33.882;151.134;2023-01-25T14:46:17;6.28;;;1.90;;
16391;SDS011;8305;-33.882;151.134;2023-01-25T14:48:49;6.38;;;1.95;;
16391;SDS011;8305;-33.882;151.134;2023-01-25T14:51:30;5.28;;;2.15;;
16391;SDS011;8305;-33.882;151.134;2023-01-25T14:54:02;7.60;;;2.10;;
16391;SDS011;8305;-33.882;151.134;2023-01-25T14:56:35;3.88;;;1.80;;
16391;SDS011;8305;-33.882;151.134;2023-01-25T14:59:27;5.90;;;2.00;;
16391;SDS011;8305;-33.882;151.134;2023-01-25T15:02:02;3.85;;;2.17;;
16391;SDS011;8305;-33.882;151.134;2023-01-25T15:04:51;6.65;;;2.20;;
16391;SDS011;8305;-33.882;151.134;2023-01-25T15:07:41;7.30;;;2.40;;
16391;SDS011;8305;-33.882;151.134;2023-01-25T15:10:18;7.47;;;2.13;;